Time;durP1;ratioP1;P1;durP2;ratioP2;P2;SDS_P1;SDS_P2;PMS_P1;PMS_P2;Temp;Humidity;BMP_temperature;BMP_pressure;BME280_temperature;BME280_humidity;BME280_pressure;Samples;Min_cycle;Max_cycle;Signal;HPM_P1;HPM_P2
2022/11/03 00:00:34;;;;;;;10.35;5.57;;;7.00;99.90;;;;;;5006190;28;20207;-88
2022/11/03 00:03:01;;;;;;;12.40;6.15;;;6.90;99.90;;;;;;5004489;28;20306;-88
2022/11/03 00:08:14;;;;;;;13.35;5.53;;;6.90;99.90;;;;;;5009478;28;20210;-88
2022/11/03 00:10:41;;;;;;;8.68;5.90;;;7.00;99.90;;;;;;5006250;28;20767;-88
2022/11/03 00:13:08;;;;;;;9.27;5.10;;;7.00;99.90;;;;;;5010461;28;20251;-88
2022/11/03 00:15:35;;;;;;;8.25;5.40;;;7.10;99.90;;;;;;5009868;28;20199;-88
2022/11/03 00:18:02;;;;;;;13.05;5.43;;;7.00;99.90;;;;;;5005520;28;20298;-88
2022/11/03 00:20:29;;;;;;;8.95;4.90;;;6.90;99.90;;;;;;5004304;28;20250;-88
2022/11/03 00:22:59;;;;;;;8.23;5.05;;;6.90;99.90;;;;;;5011826;28;20245;-88
2022/11/03 00:28:51;;;;;;;8.55;5.20;;;6.90;99.90;;;;;;5013278;28;20218;-88
2022/11/03 00:31:20;;;;;;;8.77;4.60;;;6.90;99.90;;;;;;5018115;28;20286;-88
2022/11/03 00:34:00;;;;;;;7.68;4.75;;;6.90;99.90;;;;;;5016505;28;20246;-88
2022/11/03 00:36:47;;;;;;;8.30;5.13;;;6.90;99.90;;;;;;5022169;28;20212;-88
2022/11/03 00:39:14;;;;;;;8.98;5.68;;;6.90;99.90;;;;;;5010738;28;20211;-89
2022/11/03 00:41:41;;;;;;;8.00;5.20;;;6.80;99.90;;;;;;5009861;28;20586;-88
2022/11/03 00:44:12;;;;;;;10.60;5.80;;;6.80;99.90;;;;;;5000675;28;20282;-88
2022/11/03 00:46:39;;;;;;;12.02;5.80;;;6.80;99.90;;;;;;5008903;28;20283;-88
2022/11/03 00:49:06;;;;;;;8.40;5.10;;;6.80;99.90;;;;;;5007091;28;20215;-88
2022/11/03 00:51:34;;;;;;;7.93;5.25;;;6.80;99.90;;;;;;5010213;28;20227;-88
2022/11/03 00:54:04;;;;;;;9.07;5.78;;;6.80;99.90;;;;;;5008958;28;20195;-88
2022/11/03 00:56:32;;;;;;;12.25;5.20;;;6.90;99.90;;;;;;5009956;28;20289;-88
2022/11/03 00:59:01;;;;;;;8.60;5.07;;;6.90;99.90;;;;;;5005644;28;20683;-88
2022/11/03 01:01:33;;;;;;;10.75;5.70;;;7.00;99.90;;;;;;5003866;28;20245;-88
2022/11/03 01:06:52;;;;;;;7.93;5.00;;;7.10;99.90;;;;;;5006259;28;20383;-89
2022/11/03 01:09:21;;;;;;;7.78;4.50;;;7.00;99.90;;;;;;5008841;28;20202;-88
2022/11/03 01:11:58;;;;;;;8.07;4.70;;;7.00;99.90;;;;;;5006188;28;20318;-88
2022/11/03 01:14:27;;;;;;;9.02;4.68;;;6.90;99.90;;;;;;5010711;28;20269;-88
2022/11/03 01:16:56;;;;;;;7.50;4.55;;;6.90;99.90;;;;;;5001979;28;20575;-88
2022/11/03 01:19:24;;;;;;;7.43;4.93;;;6.90;99.90;;;;;;5005495;28;20466;-88
2022/11/03 01:21:53;;;;;;;8.15;4.55;;;6.90;99.90;;;;;;5010167;28;20233;-88
2022/11/03 01:24:21;;;;;;;7.00;4.60;;;6.80;99.90;;;;;;5007450;28;20740;-88
2022/11/03 01:26:48;;;;;;;7.82;4.72;;;6.80;99.90;;;;;;5013847;28;20674;-88
2022/11/03 01:29:15;;;;;;;8.98;5.07;;;6.80;99.90;;;;;;5009401;28;20723;-89
2022/11/03 01:31:42;;;;;;;8.90;5.43;;;6.80;99.90;;;;;;5003892;28;20219;-88
2022/11/03 01:34:15;;;;;;;8.93;5.43;;;6.70;99.90;;;;;;5008833;28;20678;-88
2022/11/03 01:36:42;;;;;;;8.87;5.03;;;6.70;99.90;;;;;;5005230;28;20200;-88
2022/11/03 01:39:11;;;;;;;8.73;5.30;;;6.70;99.90;;;;;;5004528;28;20237;-88
2022/11/03 01:41:43;;;;;;;8.52;4.80;;;6.60;99.90;;;;;;5011305;28;20222;-89
2022/11/03 01:44:31;;;;;;;10.33;4.83;;;6.60;99.90;;;;;;5006847;28;20248;-88
2022/11/03 01:47:11;;;;;;;7.83;4.60;;;6.50;99.90;;;;;;4999112;28;20218;-89
2022/11/03 01:49:46;;;;;;;7.03;4.53;;;6.50;99.90;;;;;;5000300;28;20207;-88
2022/11/03 01:52:18;;;;;;;13.00;4.80;;;6.50;99.90;;;;;;5004389;28;20260;-88
2022/11/03 01:54:50;;;;;;;11.30;4.78;;;6.40;99.90;;;;;;5002810;28;20210;-88
2022/11/03 01:57:21;;;;;;;7.97;4.28;;;6.40;99.90;;;;;;4999549;28;20662;-89
2022/11/03 01:59:49;;;;;;;10.90;5.20;;;6.40;99.90;;;;;;5007485;28;20295;-88
2022/11/03 02:02:16;;;;;;;9.23;5.18;;;6.40;99.90;;;;;;5004121;28;20199;-88
2022/11/03 02:04:45;;;;;;;9.53;4.97;;;6.30;99.90;;;;;;5004543;28;20205;-88
2022/11/03 02:07:17;;;;;;;6.40;4.55;;;6.30;99.90;;;;;;4998729;28;20207;-88
2022/11/03 02:09:44;;;;;;;7.10;4.45;;;6.40;99.90;;;;;;5002812;28;20201;-89
2022/11/03 02:12:11;;;;;;;10.38;4.75;;;6.40;99.90;;;;;;5004660;28;20258;-89
2022/11/03 02:14:43;;;;;;;5.90;4.32;;;6.40;99.90;;;;;;5006707;28;20541;-88
2022/11/03 02:17:13;;;;;;;9.05;5.13;;;6.40;99.90;;;;;;5006252;28;20655;-88
2022/11/03 02:19:46;;;;;;;10.23;4.65;;;6.40;99.90;;;;;;5003798;28;20203;-88
2022/11/03 02:22:32;;;;;;;7.70;4.80;;;6.40;99.90;;;;;;5015719;28;20655;-88
2022/11/03 02:25:05;;;;;;;6.73;4.70;;;6.40;99.90;;;;;;5001863;28;20216;-88
2022/11/03 02:27:34;;;;;;;7.47;4.70;;;6.30;99.90;;;;;;5001237;28;20242;-88
2022/11/03 02:30:01;;;;;;;8.10;4.43;;;6.30;99.90;;;;;;4999341;28;20208;-88
2022/11/03 02:32:33;;;;;;;5.63;4.20;;;6.30;99.90;;;;;;5008887;28;20273;-88
2022/11/03 02:35:04;;;;;;;5.50;4.35;;;6.30;99.90;;;;;;5009406;28;20665;-88
2022/11/03 02:37:35;;;;;;;5.57;4.27;;;6.40;99.90;;;;;;5000919;28;20203;-88
2022/11/03 02:40:06;;;;;;;7.43;4.20;;;6.40;99.90;;;;;;5009646;28;20235;-88
2022/11/03 02:42:39;;;;;;;8.57;4.57;;;6.40;99.90;;;;;;5004761;28;20290;-88
2022/11/03 02:45:10;;;;;;;7.30;4.30;;;6.40;99.90;;;;;;5007620;28;20203;-88
2022/11/03 02:47:38;;;;;;;6.67;4.43;;;6.40;99.90;;;;;;5006316;28;20203;-88
2022/11/03 02:50:09;;;;;;;9.87;5.30;;;6.40;99.90;;;;;;5008153;28;20219;-88
2022/11/03 02:52:39;;;;;;;8.80;5.37;;;6.30;99.90;;;;;;5002477;28;20219;-88
2022/11/03 02:55:11;;;;;;;9.20;4.67;;;6.20;99.90;;;;;;5003908;28;20216;-89
2022/11/03 02:57:45;;;;;;;7.27;5.03;;;6.20;99.90;;;;;;5009260;28;20241;-88
2022/11/03 03:00:16;;;;;;;7.00;4.93;;;6.10;99.90;;;;;;5008606;28;20219;-88
2022/11/03 03:02:51;;;;;;;6.03;4.17;;;6.10;99.90;;;;;;5010862;28;20213;-88
2022/11/03 03:05:19;;;;;;;7.07;4.87;;;6.10;99.90;;;;;;5003204;28;20204;-88
2022/11/03 03:07:49;;;;;;;6.73;4.53;;;6.10;99.90;;;;;;5007170;28;20203;-88
2022/11/03 03:10:18;;;;;;;6.20;4.33;;;6.20;99.90;;;;;;5003026;28;20299;-88
2022/11/03 03:12:50;;;;;;;6.30;4.43;;;6.20;99.90;;;;;;5009346;28;20661;-87
2022/11/03 03:15:19;;;;;;;10.67;4.20;;;6.20;99.90;;;;;;5006851;28;20759;-88
2022/11/03 03:17:52;;;;;;;5.70;4.10;;;6.20;99.90;;;;;;5008033;28;20269;-88
2022/11/03 03:20:24;;;;;;;8.03;4.40;;;6.20;99.90;;;;;;5006441;28;20218;-88
2022/11/03 03:22:56;;;;;;;5.93;4.30;;;6.00;99.90;;;;;;5002552;28;20301;-88
2022/11/03 03:25:28;;;;;;;7.90;4.43;;;6.00;99.90;;;;;;5007410;28;20215;-88
2022/11/03 03:28:06;;;;;;;5.93;4.30;;;5.90;99.90;;;;;;5010023;28;20210;-88
2022/11/03 03:30:35;;;;;;;5.80;4.03;;;5.80;99.90;;;;;;5009366;28;20238;-88
2022/11/03 03:33:05;;;;;;;6.83;4.60;;;5.80;99.90;;;;;;5011810;28;20282;-88
2022/11/03 03:35:34;;;;;;;8.70;4.77;;;5.80;99.90;;;;;;5009330;28;20322;-89
2022/11/03 03:38:05;;;;;;;8.40;4.80;;;5.80;99.90;;;;;;5010727;28;20669;-88
2022/11/03 03:40:37;;;;;;;7.00;4.40;;;5.70;99.90;;;;;;5009087;28;20211;-89
2022/11/03 03:43:08;;;;;;;7.20;4.60;;;5.70;99.90;;;;;;5008204;28;20659;-88
2022/11/03 03:45:36;;;;;;;7.73;4.73;;;5.70;99.90;;;;;;5012636;28;20241;-88
2022/11/03 03:48:05;;;;;;;8.43;4.33;;;5.60;99.90;;;;;;5005562;28;20625;-88
2022/11/03 03:50:36;;;;;;;5.63;4.40;;;5.60;99.90;;;;;;5008889;28;20326;-87
2022/11/03 03:53:06;;;;;;;8.33;4.73;;;5.60;99.90;;;;;;5004297;28;20313;-88
2022/11/03 03:55:35;;;;;;;8.70;4.47;;;5.60;99.90;;;;;;5010983;28;20290;-87
2022/11/03 03:58:03;;;;;;;7.53;4.30;;;5.60;99.90;;;;;;5012063;28;20211;-87
2022/11/03 04:00:31;;;;;;;9.43;4.57;;;5.50;99.90;;;;;;5010278;28;20298;-88
2022/11/03 04:02:58;;;;;;;7.40;4.43;;;5.50;99.90;;;;;;5005417;28;20680;-88
2022/11/03 04:05:25;;;;;;;9.07;4.47;;;5.50;99.90;;;;;;5010536;28;20209;-88
2022/11/03 04:07:52;;;;;;;7.13;4.63;;;5.40;99.90;;;;;;5011970;28;20212;-88
2022/11/03 04:10:21;;;;;;;8.20;4.70;;;5.40;99.90;;;;;;5006758;28;20298;-89
2022/11/03 04:24:00;;;;;;;7.67;4.33;;;5.50;99.90;;;;;;4940594;28;20201;-88
2022/11/03 04:26:28;;;;;;;7.60;4.30;;;5.50;99.90;;;;;;4944427;28;20371;-88
2022/11/03 04:28:56;;;;;;;9.60;4.83;;;5.50;99.90;;;;;;4949744;28;20248;-90
2022/11/03 04:31:30;;;;;;;6.57;4.67;;;5.40;99.90;;;;;;4946852;29;20201;-88
2022/11/03 04:33:58;;;;;;;8.47;4.87;;;5.40;99.90;;;;;;4943776;29;20409;-89
2022/11/03 04:36:25;;;;;;;21.80;6.30;;;5.50;99.90;;;;;;4945350;28;20209;-88
2022/11/03 04:38:53;;;;;;;40.93;7.20;;;5.50;99.90;;;;;;4947351;28;20739;-88
2022/11/03 04:41:22;;;;;;;22.30;7.27;;;5.40;99.90;;;;;;4947295;29;20309;-89
2022/11/03 04:43:50;;;;;;;18.63;7.00;;;5.40;99.90;;;;;;4945494;28;20231;-89
2022/11/03 04:46:24;;;;;;;14.80;6.80;;;5.30;99.90;;;;;;4948456;29;20288;-88
2022/11/03 04:48:53;;;;;;;12.77;7.00;;;5.30;99.90;;;;;;4948403;29;20210;-88
2022/11/03 04:51:24;;;;;;;9.57;7.27;;;5.30;99.90;;;;;;4946057;28;20337;-88
2022/11/03 04:53:54;;;;;;;12.33;6.87;;;5.40;99.90;;;;;;4949971;28;20209;-88
2022/11/03 04:56:23;;;;;;;14.87;7.53;;;5.40;99.90;;;;;;4944349;28;20232;-88
2022/11/03 04:58:54;;;;;;;17.07;7.30;;;5.30;99.90;;;;;;4956286;28;20213;-88
2022/11/03 05:01:23;;;;;;;9.33;6.67;;;5.30;99.90;;;;;;5010127;28;20213;-88
2022/11/03 05:03:53;;;;;;;10.20;7.27;;;5.40;99.90;;;;;;5005499;28;20916;-88
2022/11/03 05:06:22;;;;;;;11.80;7.20;;;5.30;99.90;;;;;;5009565;28;20215;-88
2022/11/03 05:08:53;;;;;;;9.73;7.23;;;5.30;99.90;;;;;;5009653;28;20306;-88
2022/11/03 05:11:26;;;;;;;9.47;7.23;;;5.40;99.90;;;;;;5010072;28;20210;-89
2022/11/03 05:13:53;;;;;;;13.63;7.33;;;5.50;99.90;;;;;;5007553;28;20318;-88
2022/11/03 05:16:20;;;;;;;19.43;8.50;;;5.50;99.90;;;;;;5002459;28;21034;-89
2022/11/03 05:18:50;;;;;;;10.80;7.83;;;5.50;99.90;;;;;;5005822;28;20367;-88
2022/11/03 05:21:21;;;;;;;8.47;7.53;;;5.50;99.90;;;;;;5005207;28;20318;-88
2022/11/03 05:23:52;;;;;;;11.03;7.63;;;5.60;99.90;;;;;;5001537;28;20319;-88
2022/11/03 05:26:24;;;;;;;10.20;7.13;;;5.80;99.90;;;;;;5006190;28;20537;-88
2022/11/03 05:28:53;;;;;;;11.93;7.23;;;5.80;99.90;;;;;;5006865;28;20290;-88
2022/11/03 05:31:24;;;;;;;15.53;7.17;;;5.80;99.90;;;;;;4999057;28;20204;-88
2022/11/03 05:33:52;;;;;;;8.77;7.17;;;5.80;99.90;;;;;;5004869;28;20585;-89
2022/11/03 05:36:24;;;;;;;10.90;8.07;;;5.80;99.90;;;;;;5007489;28;20330;-88
2022/11/03 05:38:58;;;;;;;15.57;8.13;;;5.80;99.90;;;;;;5005580;28;20205;-88
2022/11/03 05:41:27;;;;;;;13.20;8.03;;;5.80;99.90;;;;;;5007039;28;20202;-88
2022/11/03 05:43:58;;;;;;;9.33;7.93;;;5.80;99.90;;;;;;5008556;28;20254;-88
2022/11/03 05:46:29;;;;;;;8.43;7.50;;;5.70;99.90;;;;;;5005516;28;20260;-88
2022/11/03 05:48:56;;;;;;;67.87;8.87;;;5.80;99.90;;;;;;5007034;28;20214;-88
2022/11/03 05:51:29;;;;;;;21.87;8.27;;;5.90;99.90;;;;;;5010386;28;20214;-89
2022/11/03 05:53:58;;;;;;;15.27;7.10;;;6.00;99.90;;;;;;5003130;28;20230;-88
2022/11/03 05:56:28;;;;;;;84.43;8.90;;;6.00;99.90;;;;;;5010926;28;20207;-88
2022/11/03 05:58:56;;;;;;;45.97;8.37;;;6.00;99.90;;;;;;4997985;28;20306;-88
2022/11/03 06:01:28;;;;;;;44.33;8.17;;;6.00;99.90;;;;;;5002443;28;20632;-89
2022/11/03 06:03:55;;;;;;;25.77;7.73;;;6.00;99.90;;;;;;5003353;28;20222;-88
2022/11/03 06:06:28;;;;;;;10.97;6.70;;;6.00;99.90;;;;;;5009427;28;21528;-88
2022/11/03 06:08:56;;;;;;;31.43;7.10;;;6.00;99.90;;;;;;5002592;28;20305;-89
2022/11/03 06:11:28;;;;;;;16.73;5.80;;;6.10;99.90;;;;;;4989929;28;20219;-88
2022/11/03 06:13:57;;;;;;;29.67;6.53;;;6.20;99.90;;;;;;5002135;28;20670;-88
2022/11/03 06:16:39;;;;;;;13.43;6.03;;;6.20;99.90;;;;;;5009796;28;20212;-88
2022/11/03 06:19:20;;;;;;;14.97;6.17;;;6.20;99.90;;;;;;5000561;28;20689;-88
2022/11/03 06:21:50;;;;;;;11.43;6.33;;;6.20;99.90;;;;;;5006577;28;20234;-88
2022/11/03 06:24:19;;;;;;;12.67;5.90;;;6.20;99.90;;;;;;5010275;28;20242;-88
2022/11/03 06:26:48;;;;;;;21.37;6.93;;;6.30;99.90;;;;;;5006590;28;20254;-88
2022/11/03 06:29:17;;;;;;;12.60;5.87;;;6.30;99.90;;;;;;5009832;28;20214;-88
2022/11/03 06:31:46;;;;;;;40.63;7.33;;;6.20;99.90;;;;;;5009654;28;20720;-88
2022/11/03 06:34:39;;;;;;;10.07;6.30;;;6.10;99.90;;;;;;4999559;28;20315;-88
2022/11/03 06:37:18;;;;;;;21.53;6.70;;;6.10;99.90;;;;;;4987312;28;20207;-88
2022/11/03 06:39:45;;;;;;;11.93;6.00;;;6.20;99.90;;;;;;5005378;28;20302;-88
2022/11/03 06:42:14;;;;;;;20.43;6.40;;;6.20;99.90;;;;;;5005229;28;20346;-88
2022/11/03 06:44:43;;;;;;;14.07;6.38;;;6.30;99.90;;;;;;5004902;28;20297;-89
2022/11/03 06:47:24;;;;;;;14.80;5.90;;;6.30;99.90;;;;;;4997714;28;20290;-88
2022/11/03 06:49:53;;;;;;;7.60;5.70;;;6.30;99.90;;;;;;4999993;28;20698;-88
2022/11/03 06:52:41;;;;;;;20.60;5.85;;;6.30;99.90;;;;;;5004170;28;20326;-88
2022/11/03 06:55:26;;;;;;;14.07;5.18;;;6.40;99.90;;;;;;4997154;28;20211;-89
2022/11/03 06:57:57;;;;;;;10.33;5.30;;;6.40;99.90;;;;;;5006723;28;20211;-88
2022/11/03 07:00:27;;;;;;;11.25;5.70;;;6.30;99.90;;;;;;5001272;28;20207;-88
2022/11/03 07:02:59;;;;;;;7.43;5.18;;;6.30;99.90;;;;;;5005803;28;20623;-88
2022/11/03 07:05:27;;;;;;;5.97;4.75;;;6.40;99.90;;;;;;4993774;28;20283;-88
2022/11/03 07:07:58;;;;;;;12.73;5.07;;;6.50;99.90;;;;;;5001202;28;20572;-88
2022/11/03 07:10:27;;;;;;;10.32;4.90;;;6.60;99.90;;;;;;4999338;28;20206;-89
2022/11/03 07:12:55;;;;;;;13.93;5.60;;;6.80;99.90;;;;;;5000053;28;20234;-88
2022/11/03 07:15:31;;;;;;;7.67;5.20;;;6.80;99.90;;;;;;5008213;28;20207;-88
2022/11/03 07:17:58;;;;;;;7.40;5.13;;;6.80;99.90;;;;;;5004880;28;20207;-88
2022/11/03 07:20:30;;;;;;;22.83;5.70;;;7.00;99.90;;;;;;5005612;28;20625;-89
2022/11/03 07:23:01;;;;;;;12.68;5.55;;;6.80;99.70;;;;;;5007635;28;20335;-89
2022/11/03 07:25:32;;;;;;;7.38;5.38;;;6.80;99.90;;;;;;5001383;28;20294;-89
2022/11/03 07:28:03;;;;;;;11.82;5.70;;;6.70;99.90;;;;;;5008134;28;20225;-88
2022/11/03 07:30:34;;;;;;;7.75;6.43;;;6.60;99.90;;;;;;5003616;28;20609;-89
2022/11/03 07:33:16;;;;;;;8.05;5.57;;;6.50;99.90;;;;;;5002555;28;20423;-89
2022/11/03 07:35:45;;;;;;;7.80;5.63;;;6.70;99.90;;;;;;5008746;28;20199;-88
2022/11/03 07:38:15;;;;;;;10.35;5.88;;;6.90;99.90;;;;;;5003466;28;20407;-89
2022/11/03 07:40:42;;;;;;;5.32;4.82;;;6.90;99.90;;;;;;4999032;28;20200;-88
2022/11/03 07:43:15;;;;;;;5.93;5.30;;;7.00;99.90;;;;;;5008098;28;20298;-89
2022/11/03 07:45:44;;;;;;;8.10;5.70;;;7.10;99.90;;;;;;5010040;28;20206;-89
2022/11/03 07:48:25;;;;;;;5.55;5.05;;;7.10;99.90;;;;;;5007465;28;20210;-88
2022/11/03 07:50:53;;;;;;;5.60;4.97;;;7.30;99.90;;;;;;5007380;28;20290;-89
2022/11/03 07:53:35;;;;;;;6.10;5.18;;;7.40;99.50;;;;;;5005614;28;20230;-88
2022/11/03 07:56:07;;;;;;;5.78;5.18;;;7.50;98.90;;;;;;5009938;28;20286;-90
2022/11/03 07:58:38;;;;;;;8.07;5.30;;;7.50;98.80;;;;;;5009967;28;20199;-89
2022/11/03 08:01:22;;;;;;;7.32;5.03;;;7.60;99.00;;;;;;5013235;28;20294;-90
2022/11/03 08:03:49;;;;;;;9.75;5.78;;;7.80;98.70;;;;;;5009107;28;20689;-89
2022/11/03 08:06:16;;;;;;;6.40;5.78;;;7.70;98.50;;;;;;5008083;28;20306;-89
2022/11/03 08:08:49;;;;;;;11.98;5.85;;;7.80;99.10;;;;;;4984619;28;20286;-89
2022/11/03 08:11:16;;;;;;;10.07;5.80;;;8.00;99.10;;;;;;4998462;28;20217;-88
2022/11/03 08:13:43;;;;;;;8.23;6.05;;;8.30;98.90;;;;;;5011165;28;20318;-88
2022/11/03 08:16:10;;;;;;;7.45;6.05;;;8.50;98.40;;;;;;4992662;28;20294;-89
2022/11/03 08:18:37;;;;;;;8.98;6.00;;;8.70;97.50;;;;;;5015906;28;20195;-89
2022/11/03 08:21:04;;;;;;;11.50;6.80;;;8.60;97.50;;;;;;5009701;28;20778;-88
2022/11/03 08:23:31;;;;;;;9.13;6.47;;;8.60;97.70;;;;;;5008120;28;20671;-87
2022/11/03 08:26:07;;;;;;;8.38;7.22;;;8.60;97.80;;;;;;5009083;28;20928;-87
2022/11/03 08:28:42;;;;;;;9.52;6.65;;;8.80;98.50;;;;;;5011439;28;20206;-89
2022/11/03 08:34:31;;;;;;;8.43;5.95;;;9.10;98.60;;;;;;5013883;28;20702;-89
2022/11/03 08:37:06;;;;;;;6.35;5.60;;;9.80;96.40;;;;;;5006970;28;20205;-89
2022/11/03 08:39:36;;;;;;;6.30;5.00;;;10.50;95.90;;;;;;5006871;28;20249;-89
2022/11/03 08:42:04;;;;;;;5.72;5.15;;;10.90;93.80;;;;;;5004807;28;20704;-89
2022/11/03 08:44:42;;;;;;;6.35;4.43;;;11.60;93.00;;;;;;5006911;28;20298;-91
2022/11/03 08:47:08;;;;;;;6.25;4.25;;;12.90;86.10;;;;;;5006785;28;20266;-89
2022/11/03 08:49:35;;;;;;;4.95;4.20;;;12.90;81.90;;;;;;5004225;28;20246;-90
2022/11/03 08:52:02;;;;;;;6.07;4.38;;;13.30;78.90;;;;;;5005828;28;20785;-89
2022/11/03 08:54:29;;;;;;;4.78;4.07;;;13.60;76.30;;;;;;5001612;28;20639;-89
2022/11/03 08:56:56;;;;;;;8.43;4.30;;;14.40;72.00;;;;;;5008324;28;20334;-88
2022/11/03 08:59:25;;;;;;;6.22;4.40;;;15.10;59.80;;;;;;5004170;28;20315;-87
2022/11/03 09:01:52;;;;;;;4.88;3.92;;;15.50;58.10;;;;;;5008357;28;20302;-87
2022/11/03 09:04:19;;;;;;;5.65;4.07;;;16.10;48.60;;;;;;5004309;28;20217;-90
2022/11/03 09:06:46;;;;;;;4.20;3.80;;;16.50;47.40;;;;;;5010992;28;20212;-84
2022/11/03 09:09:13;;;;;;;4.97;4.30;;;17.00;42.30;;;;;;4998732;28;20219;-85
2022/11/03 09:11:40;;;;;;;4.95;3.92;;;17.20;38.00;;;;;;5001963;28;20572;-87
2022/11/03 09:14:06;;;;;;;5.65;4.00;;;17.70;35.20;;;;;;4999753;28;21058;-87
2022/11/03 09:16:35;;;;;;;5.63;3.80;;;18.30;34.80;;;;;;4990814;28;20748;-87
2022/11/03 09:19:02;;;;;;;5.10;4.22;;;19.10;31.30;;;;;;4989884;28;20249;-88
2022/11/03 09:21:29;;;;;;;4.55;4.03;;;19.30;29.70;;;;;;4983736;28;20219;-87
2022/11/03 09:23:58;;;;;;;7.82;4.45;;;18.80;29.60;;;;;;4988807;28;20758;-87
2022/11/03 09:26:27;;;;;;;3.45;3.15;;;18.40;33.10;;;;;;4994480;28;20222;-87
2022/11/03 09:28:54;;;;;;;5.93;4.40;;;19.50;29.80;;;;;;4991924;28;20241;-87
2022/11/03 09:31:27;;;;;;;7.20;4.43;;;20.00;26.40;;;;;;4986653;28;20269;-87
2022/11/03 09:33:55;;;;;;;8.05;4.07;;;19.60;26.40;;;;;;4988332;28;20245;-87
2022/11/03 09:36:24;;;;;;;6.18;4.18;;;19.90;25.40;;;;;;4998686;28;20293;-87
2022/11/03 09:38:51;;;;;;;6.30;4.57;;;19.70;25.70;;;;;;4988798;28;21011;-86
2022/11/03 09:41:17;;;;;;;4.80;4.38;;;19.70;26.10;;;;;;4997940;28;20313;-87
2022/11/03 09:43:45;;;;;;;6.18;4.20;;;20.60;23.80;;;;;;4997060;28;20368;-86
2022/11/03 09:46:12;;;;;;;5.32;4.13;;;20.50;23.80;;;;;;4993602;28;20234;-86
2022/11/03 09:48:39;;;;;;;9.45;4.68;;;19.90;25.00;;;;;;4994708;28;20250;-87
2022/11/03 09:51:10;;;;;;;5.68;4.15;;;19.50;25.50;;;;;;4997174;28;20228;-87
2022/11/03 09:53:37;;;;;;;5.45;4.60;;;19.00;27.70;;;;;;4990968;28;20330;-87
2022/11/03 09:56:04;;;;;;;5.93;4.00;;;18.30;30.60;;;;;;4990801;28;20233;-87
2022/11/03 09:58:33;;;;;;;5.00;3.30;;;17.80;30.20;;;;;;5003097;28;20214;-86
2022/11/03 10:01:01;;;;;;;6.03;3.55;;;17.80;30.20;;;;;;5002208;28;20633;-88
2022/11/03 10:03:28;;;;;;;5.45;3.35;;;18.30;30.70;;;;;;5007612;28;20234;-85
2022/11/03 10:05:55;;;;;;;7.55;3.75;;;19.00;27.70;;;;;;5002053;28;20207;-83
2022/11/03 10:08:27;;;;;;;5.53;3.78;;;19.00;26.60;;;;;;5007971;28;20214;-85
2022/11/03 10:11:01;;;;;;;5.60;3.92;;;19.60;25.30;;;;;;5005555;28;20208;-89
2022/11/03 10:13:31;;;;;;;5.13;2.97;;;19.40;26.50;;;;;;5001229;28;20681;-86
2022/11/03 10:15:59;;;;;;;6.43;3.17;;;19.30;26.60;;;;;;5006199;28;20289;-85
2022/11/03 10:18:27;;;;;;;5.75;3.45;;;19.60;24.80;;;;;;5007312;28;20207;-86
2022/11/03 10:20:54;;;;;;;5.15;3.40;;;19.10;27.40;;;;;;5008451;28;20314;-88
2022/11/03 10:23:37;;;;;;;4.75;3.10;;;18.50;28.80;;;;;;5004159;28;20237;-88
2022/11/03 10:26:10;;;;;;;5.50;2.95;;;18.20;29.80;;;;;;5002133;28;20290;-86
2022/11/03 10:28:37;;;;;;;43.90;23.75;;;18.00;30.40;;;;;;5000109;28;20215;-89
2022/11/03 10:31:07;;;;;;;5.43;3.28;;;17.50;31.00;;;;;;5004309;28;20231;-89
2022/11/03 10:33:36;;;;;;;5.93;3.38;;;17.60;30.50;;;;;;5002412;28;20354;-89
2022/11/03 10:36:04;;;;;;;5.75;3.17;;;18.00;30.40;;;;;;5007605;28;20229;-89
2022/11/03 10:38:33;;;;;;;7.13;3.13;;;18.10;30.50;;;;;;5004419;28;20211;-89
2022/11/03 10:41:16;;;;;;;6.07;3.20;;;17.80;30.20;;;;;;5007373;28;20214;-89
2022/11/03 10:43:44;;;;;;;6.65;3.45;;;18.00;30.40;;;;;;5006056;28;20234;-88
2022/11/03 10:46:15;;;;;;;7.38;3.67;;;17.80;30.20;;;;;;5001342;28;20238;-89
2022/11/03 10:48:42;;;;;;;8.90;3.22;;;18.30;30.60;;;;;;5007551;28;20209;-88
2022/11/03 10:51:13;;;;;;;4.85;3.22;;;18.40;29.50;;;;;;5006124;28;20210;-88
2022/11/03 10:53:42;;;;;;;6.88;3.42;;;17.90;31.40;;;;;;5003527;28;20370;-89
2022/11/03 10:56:09;;;;;;;6.90;3.40;;;17.20;29.70;;;;;;5003884;28;20211;-88
2022/11/03 10:58:43;;;;;;;8.77;3.20;;;16.90;32.90;;;;;;5005085;28;20316;-88
2022/11/03 11:01:11;;;;;;;11.85;3.70;;;16.60;35.80;;;;;;5002253;28;20217;-88
2022/11/03 11:03:42;;;;;;;7.30;3.95;;;16.60;36.20;;;;;;4995962;28;20634;-89
2022/11/03 11:06:21;;;;;;;6.15;3.38;;;16.50;38.70;;;;;;5001286;28;20236;-90
2022/11/03 11:08:49;;;;;;;5.55;3.83;;;16.50;37.40;;;;;;5010169;28;20207;-90
2022/11/03 11:11:18;;;;;;;6.72;4.13;;;16.20;41.00;;;;;;5006024;28;20212;-90
2022/11/03 11:14:06;;;;;;;7.65;4.07;;;15.90;47.90;;;;;;5005315;28;20724;-89
2022/11/03 11:16:48;;;;;;;7.60;3.90;;;15.70;52.00;;;;;;5007290;28;20207;-90
2022/11/03 11:20:05;;;;;;;6.93;4.30;;;15.50;54.70;;;;;;4978418;28;20206;-91
2022/11/03 11:22:32;;;;;;;5.43;4.25;;;15.60;57.80;;;;;;4969633;28;20208;-90
2022/11/03 11:25:00;;;;;;;7.03;4.70;;;15.50;57.20;;;;;;4971234;28;20307;-90
2022/11/03 11:27:56;;;;;;;7.70;4.78;;;15.50;64.10;;;;;;4977260;28;20295;-90
2022/11/03 11:31:03;;;;;;;10.15;4.82;;;15.30;61.50;;;;;;4959364;28;20639;-90
2022/11/03 11:36:25;;;;;;;7.18;4.72;;;15.20;64.50;;;;;;4969377;28;20701;-90
2022/11/03 11:39:12;;;;;;;7.53;4.68;;;15.30;65.00;;;;;;4962329;28;20197;-90
2022/11/03 11:42:12;;;;;;;8.30;4.85;;;15.30;66.10;;;;;;4974706;28;20637;-89
2022/11/03 11:44:57;;;;;;;6.20;4.45;;;15.30;64.40;;;;;;4974354;28;20231;-90
2022/11/03 11:47:43;;;;;;;7.30;4.88;;;15.50;66.00;;;;;;4973258;28;20208;-90
2022/11/03 11:50:30;;;;;;;8.15;4.80;;;15.50;64.70;;;;;;4972032;28;20211;-90
2022/11/03 11:53:03;;;;;;;5.93;4.82;;;15.60;62.90;;;;;;4982514;28;20290;-89
2022/11/03 11:55:35;;;;;;;48.65;32.30;;;15.60;63.30;;;;;;4980010;28;20231;-90
2022/11/03 11:58:04;;;;;;;8.45;4.70;;;15.40;66.60;;;;;;4997141;28;20254;-90
2022/11/03 12:00:33;;;;;;;8.65;5.10;;;15.20;67.00;;;;;;5007341;28;20566;-90
2022/11/03 12:03:02;;;;;;;8.60;5.30;;;15.10;70.30;;;;;;5009069;28;20203;-90
2022/11/03 12:05:33;;;;;;;7.35;4.90;;;15.00;71.60;;;;;;5002977;28;20306;-90
2022/11/03 12:08:00;;;;;;;9.45;6.78;;;15.10;72.40;;;;;;5008620;28;20204;-90
2022/11/03 12:10:37;;;;;;;9.43;5.40;;;15.10;72.00;;;;;;5012291;28;20215;-91
2022/11/03 12:13:51;;;;;;;7.53;5.30;;;15.00;75.00;;;;;;5008276;28;20199;-90
2022/11/03 12:19:38;;;;;;;13.73;8.65;;;14.90;75.00;;;;;;4932608;29;20614;-91
2022/11/03 12:22:40;;;;;;;6.90;5.22;;;15.10;72.00;;;;;;4920639;29;20312;-91
2022/11/03 12:25:33;;;;;;;10.85;5.30;;;15.20;69.10;;;;;;4929552;29;20213;-91
2022/11/03 12:28:06;;;;;;;13.60;4.90;;;15.30;68.20;;;;;;4929815;29;20209;-91
2022/11/03 12:30:33;;;;;;;11.20;5.72;;;15.40;69.50;;;;;;4930694;29;20292;-91
2022/11/03 12:33:09;;;;;;;10.27;5.50;;;15.50;66.30;;;;;;4928118;29;20297;-91
2022/11/03 12:35:36;;;;;;;11.93;5.43;;;15.40;68.60;;;;;;4927548;29;20225;-91
2022/11/03 12:38:13;;;;;;;13.82;5.50;;;15.40;66.50;;;;;;4927644;29;20825;-90
2022/11/03 12:40:43;;;;;;;7.78;5.10;;;15.30;66.80;;;;;;4929554;29;20205;-91
2022/11/03 12:43:10;;;;;;;10.43;5.10;;;15.10;69.60;;;;;;4930444;29;20218;-90
2022/11/03 12:45:48;;;;;;;11.77;5.55;;;15.00;74.60;;;;;;4930439;29;20300;-91
2022/11/03 12:51:00;;;;;;;7.13;4.85;;;14.70;75.90;;;;;;4931161;29;20214;-90
2022/11/03 12:53:28;;;;;;;7.07;5.20;;;14.60;77.00;;;;;;4930891;29;20296;-91
2022/11/03 12:58:59;;;;;;;8.20;5.28;;;14.60;78.70;;;;;;4939702;28;20220;-90
2022/11/03 13:04:12;;;;;;;7.78;5.45;;;14.60;77.70;;;;;;4946178;28;20209;-90
2022/11/03 13:06:39;;;;;;;9.18;5.50;;;14.50;79.60;;;;;;4944876;28;20202;-89
2022/11/03 13:09:07;;;;;;;10.77;5.72;;;14.60;78.60;;;;;;4948136;28;20757;-89
2022/11/03 13:14:15;;;;;;;6.43;5.55;;;14.60;78.70;;;;;;4887436;29;20231;-89
2022/11/03 13:16:42;;;;;;;8.30;6.25;;;14.60;79.30;;;;;;4892159;29;20211;-90
2022/11/03 13:19:12;;;;;;;9.45;5.68;;;14.70;78.60;;;;;;4889344;29;20271;-90
2022/11/03 13:21:39;;;;;;;7.28;6.28;;;14.70;80.10;;;;;;4891876;29;20310;-89
2022/11/03 13:24:08;;;;;;;9.23;6.15;;;14.70;79.40;;;;;;4930154;29;20287;-90
2022/11/03 13:26:35;;;;;;;8.55;6.00;;;14.60;80.40;;;;;;4936234;29;20291;-90
2022/11/03 13:29:01;;;;;;;7.13;6.43;;;14.50;81.80;;;;;;4931808;29;20793;-90
2022/11/03 13:31:28;;;;;;;12.73;6.32;;;14.40;82.80;;;;;;4930751;29;20293;-89
2022/11/03 13:33:55;;;;;;;9.90;6.28;;;14.40;83.30;;;;;;4933273;29;20309;-90
2022/11/03 13:36:22;;;;;;;9.45;6.45;;;14.40;83.90;;;;;;4934051;29;20301;-89
2022/11/03 13:38:54;;;;;;;8.50;6.50;;;14.30;83.90;;;;;;4930230;29;20210;-90
2022/11/03 13:41:22;;;;;;;7.28;5.93;;;14.30;83.90;;;;;;4930224;29;20211;-89
2022/11/03 13:43:49;;;;;;;9.45;7.07;;;14.20;84.50;;;;;;4937253;29;20324;-89
2022/11/03 13:46:16;;;;;;;10.45;7.28;;;14.00;86.50;;;;;;4929814;29;20309;-89
2022/11/03 13:48:43;;;;;;;10.50;7.07;;;13.80;90.00;;;;;;4928569;29;20210;-89
2022/11/03 13:51:10;;;;;;;9.25;7.15;;;13.80;90.40;;;;;;4951655;28;20207;-89